METAR AND TAF INFORMATION
METAR FOR LCEN
ADDS - METARS form results

(1008 UTC 21 January 2019)
Data provider http://aviationweather.gov/metar/data/
 
METAR text: LCEN 210950Z 08011KT 9999 FEW025 14/07 Q1019 NOSIG RMK RWY11 09012KT
Conditions at: LCEN (ERCAN , CY) observed 0950 UTC 21 January 2019
Temperature: 14.0°C (57°F)
Dewpoint: 7.0°C (45°F) [RH = 63%]
Pressure (altimeter): 30.09 inches Hg (1019.0 mb)
Winds: from the E (80 degrees) at 13 MPH (11 knots; 5.7 m/s)
Visibility: 6 or more miles (10+ km)
Ceiling: at least 12,000 feet AGL
Clouds: few clouds at 2500 feet AGL
Weather: no significant weather observed at this time

METAR text: LCEN 210920Z 08012KT 9999 FEW025 14/07 Q1019 NOSIG RMK RWY11 10012KT
Conditions at: LCEN (ERCAN , CY) observed 0920 UTC 21 January 2019
Temperature: 14.0°C (57°F)
Dewpoint: 7.0°C (45°F) [RH = 63%]
Pressure (altimeter): 30.09 inches Hg (1019.0 mb)
Winds: from the E (80 degrees) at 14 MPH (12 knots; 6.2 m/s)
Visibility: 6 or more miles (10+ km)
Ceiling: at least 12,000 feet AGL
Clouds: few clouds at 2500 feet AGL
Weather: no significant weather observed at this time

Forecast for: LCEN (ERCAN , CY)
Text: TAF LCEN 210440Z 2106/2206 08012KT 9999 SCT025 SCT100
Forecast period: 0600 UTC 21 January 2019 to 0600 UTC 22 January 2019
Forecast type: FROM: standard forecast or significant change
Winds: from the E (80 degrees) at 14 MPH (12 knots; 6.2 m/s)
Visibility: 6 or more miles 10+ km)
Ceiling: at least 12,000 feet AGL
Clouds: scattered clouds at 2500 feet AGL
scattered clouds at 10000 feet AGL
Weather: no significant weather forecast for this period
Text: PROB30
Forecast period: 0800 to 1200 UTC 21 January 2019
Forecast type: TEMPORARY: The following changes expected for less than half the time period
Visibility: missing
Ceiling: 8000 feet AGL
Clouds: scattered clouds at 2500 feet AGL
broken clouds at 8000 feet AGL
Weather: -RA  (light rain)

 AIRPORT MAP

 RUNWAY INFORMATION
Runway 11 Runway length 9039 ft Runway width 148 ft
Runway elevation 402 ft Runway displaced threshold 0 ft Runway heading 107
Runway 29 Runway length 9039 ft Runway width 148 ft
Runway elevation 402 ft Runway displaced threshold 0 ft Runway heading 287

 AIRPORT FREQUENCIES
Type Enroute Name Ercan Rada Frequency 126.7 MHZ
Type Ercan Appr Name Frequency 126.9 MHZ
Type Ercan Atis Name Frequency 118.35 MHZ
Type Ercan Towe Name Frequency 120.2 MHZ

 AIRPORT NEAR NAVIGATION AIDS



Copyright © 2007-2018 Istanbul Virtual Airlines.All rights reserved.Developed by Arca Erdik and Aykut Alp Kurt.